createdAt,value
2022-08-23T00:00:26.983Z,3.05
2022-08-23T00:02:31.813Z,3.25
2022-08-23T00:04:55.833Z,3.63
2022-08-23T00:07:05.970Z,3.53
2022-08-23T00:09:08.470Z,3.33
2022-08-23T00:11:33.743Z,3.50
2022-08-23T00:13:47.262Z,3.15
2022-08-23T00:15:50.785Z,3.33
2022-08-23T00:17:52.591Z,3.55
2022-08-23T00:19:54.490Z,3.40
2022-08-23T00:21:56.629Z,3.30
2022-08-23T00:23:58.765Z,3.58
2022-08-23T00:26:03.957Z,3.35
2022-08-23T00:28:12.555Z,3.58
2022-08-23T00:30:17.752Z,2.88
2022-08-23T00:34:30.073Z,3.38
2022-08-23T00:36:31.865Z,3.00
2022-08-23T00:38:35.087Z,3.47
2022-08-23T00:40:37.059Z,3.40
2022-08-23T00:43:22.931Z,3.35
2022-08-23T00:45:49.502Z,3.28
2022-08-23T00:47:51.444Z,3.05
2022-08-23T00:50:23.875Z,3.50
2022-08-23T00:52:40.579Z,3.60
2022-08-23T00:54:43.179Z,3.42
2022-08-23T00:56:45.013Z,3.13
2022-08-23T00:58:47.515Z,3.47
2022-08-23T01:00:51.703Z,3.47
2022-08-23T01:02:54.493Z,3.47
2022-08-23T01:07:12.513Z,3.17
2022-08-23T01:09:18.062Z,3.28
2022-08-23T01:11:33.264Z,3.33
2022-08-23T01:13:52.872Z,3.55
2022-08-23T01:16:01.172Z,3.80
2022-08-23T01:18:08.773Z,3.35
2022-08-23T01:20:14.871Z,3.58
2022-08-23T01:22:30.183Z,3.70
2022-08-23T01:25:05.961Z,3.88
2022-08-23T01:26:54.585Z,3.95
2022-08-23T01:28:56.493Z,3.78
2022-08-23T01:30:58.371Z,4.00
2022-08-23T01:33:03.445Z,3.95
2022-08-23T01:35:06.200Z,3.28
2022-08-23T01:39:10.704Z,3.70
2022-08-23T01:41:12.952Z,4.10
2022-08-23T01:43:15.674Z,3.72
2022-08-23T01:47:19.184Z,3.55
2022-08-23T01:49:21.000Z,4.10
2022-08-23T01:51:23.891Z,4.32
2022-08-23T01:53:25.626Z,3.90
2022-08-23T01:55:27.668Z,3.83
2022-08-23T01:57:29.804Z,4.10
2022-08-23T01:59:31.553Z,4.25
2022-08-23T02:01:33.541Z,4.10
2022-08-23T02:03:37.187Z,4.20
2022-08-23T02:05:42.722Z,3.80
2022-08-23T02:07:44.739Z,3.70
2022-08-23T02:09:46.750Z,4.30
2022-08-23T02:11:49.750Z,3.97
2022-08-23T02:13:54.136Z,4.28
2022-08-23T02:15:57.969Z,4.35
2022-08-23T02:18:00.411Z,4.10
2022-08-23T02:20:05.266Z,4.07
2022-08-23T02:22:08.455Z,4.15
2022-08-23T02:24:13.921Z,4.13
2022-08-23T02:26:15.943Z,3.90
2022-08-23T02:28:19.254Z,3.90
2022-08-23T02:30:21.119Z,4.28
2022-08-23T02:32:22.915Z,4.03
2022-08-23T02:34:29.643Z,4.20
2022-08-23T02:36:32.126Z,4.25
2022-08-23T02:38:33.908Z,4.30
2022-08-23T02:40:36.140Z,4.50
2022-08-23T02:42:37.939Z,4.25
2022-08-23T02:44:39.913Z,3.90
2022-08-23T02:46:43.040Z,4.57
2022-08-23T02:48:44.817Z,4.40
2022-08-23T02:52:49.274Z,4.47
2022-08-23T02:54:51.048Z,4.80
2022-08-23T02:56:55.016Z,4.13
2022-08-23T02:58:56.832Z,4.53
2022-08-23T03:00:59.632Z,4.28
2022-08-23T03:05:05.186Z,4.25
2022-08-23T03:07:07.013Z,4.00
2022-08-23T03:09:09.110Z,4.13
2022-08-23T03:11:17.069Z,4.68
2022-08-23T03:13:20.755Z,4.68
2022-08-23T03:15:23.307Z,4.50
2022-08-23T03:17:25.157Z,4.50
2022-08-23T03:19:26.983Z,4.13
2022-08-23T03:21:28.878Z,4.43
2022-08-23T03:23:30.762Z,4.47
2022-08-23T03:25:32.602Z,4.80
2022-08-23T03:27:38.269Z,4.53
2022-08-23T03:29:46.553Z,4.30
2022-08-23T03:31:48.409Z,4.22
2022-08-23T03:33:50.152Z,4.72
2022-08-23T03:35:52.149Z,5.28
2022-08-23T03:37:55.330Z,5.00
2022-08-23T03:39:57.252Z,4.60
2022-08-23T03:41:59.974Z,4.70
2022-08-23T03:44:01.915Z,5.70
2022-08-23T03:46:04.627Z,4.55
2022-08-23T03:48:06.423Z,4.93
2022-08-23T03:50:08.563Z,5.18
2022-08-23T03:52:11.336Z,5.53
2022-08-23T03:56:23.652Z,5.07
2022-08-23T03:58:25.927Z,5.30
2022-08-23T04:00:28.263Z,5.10
2022-08-23T04:02:30.025Z,5.10
2022-08-23T04:04:31.965Z,4.93
2022-08-23T04:06:34.048Z,5.57
2022-08-23T04:08:36.107Z,5.25
2022-08-23T04:10:39.077Z,4.95
2022-08-23T04:12:41.523Z,5.20
2022-08-23T04:14:45.040Z,5.50
2022-08-23T04:16:46.874Z,4.80
2022-08-23T04:18:48.693Z,5.28
2022-08-23T04:20:51.058Z,5.27
2022-08-23T04:22:54.507Z,5.18
2022-08-23T04:24:56.410Z,4.88
2022-08-23T04:26:58.180Z,5.10
2022-08-23T04:29:00.696Z,5.00
2022-08-23T04:31:03.648Z,4.97
2022-08-23T04:33:10.697Z,5.00
2022-08-23T04:35:13.077Z,4.95
2022-08-23T04:37:14.923Z,5.32
2022-08-23T04:39:16.773Z,4.97
2022-08-23T04:41:37.736Z,5.00
2022-08-23T04:43:40.389Z,5.35
2022-08-23T04:45:42.166Z,4.72
2022-08-23T04:47:44.830Z,4.65
2022-08-23T04:49:46.936Z,4.93
2022-08-23T04:51:53.492Z,4.85
2022-08-23T04:53:56.153Z,5.20
2022-08-23T04:55:57.921Z,4.85
2022-08-23T04:57:59.818Z,5.03
2022-08-23T05:00:02.156Z,4.70
2022-08-23T05:02:03.965Z,5.50
2022-08-23T05:04:05.866Z,5.00
2022-08-23T05:06:08.086Z,4.87
2022-08-23T05:08:10.154Z,5.30
2022-08-23T05:10:14.438Z,5.13
2022-08-23T05:12:16.213Z,5.32
2022-08-23T05:14:18.220Z,4.70
2022-08-23T05:16:20.038Z,5.70
2022-08-23T05:18:22.116Z,5.35
2022-08-23T05:20:25.893Z,4.90
2022-08-23T05:22:27.731Z,5.17
2022-08-23T05:24:29.643Z,5.13
2022-08-23T05:26:31.394Z,5.53
2022-08-23T05:28:34.830Z,5.47
2022-08-23T05:30:36.853Z,5.63
2022-08-23T05:32:40.279Z,4.95
2022-08-23T05:34:42.272Z,4.75
2022-08-23T05:36:48.398Z,5.60
2022-08-23T05:38:57.739Z,5.40
2022-08-23T05:41:02.071Z,4.47
2022-08-23T05:43:07.195Z,5.45
2022-08-23T05:45:09.636Z,5.25
2022-08-23T05:47:15.530Z,5.25
2022-08-23T05:49:17.591Z,5.60
2022-08-23T05:51:26.206Z,5.50
2022-08-23T05:53:27.943Z,4.68
2022-08-23T05:55:34.996Z,5.28
2022-08-23T05:57:38.371Z,5.18
2022-08-23T05:59:41.829Z,5.22
2022-08-23T06:01:44.297Z,4.95
2022-08-23T06:03:47.339Z,5.18
2022-08-23T06:05:49.112Z,4.63
2022-08-23T06:07:50.926Z,4.82
2022-08-23T06:09:52.734Z,4.63
2022-08-23T06:11:54.524Z,4.85
2022-08-23T06:13:59.171Z,4.57
2022-08-23T06:16:01.075Z,4.78
2022-08-23T06:18:16.825Z,5.30
2022-08-23T06:20:18.892Z,5.30
2022-08-23T06:22:20.902Z,5.03
2022-08-23T06:24:23.275Z,5.03
2022-08-23T06:26:33.919Z,4.50
2022-08-23T06:28:36.213Z,4.75
2022-08-23T06:30:56.964Z,4.93
2022-08-23T06:32:59.291Z,4.65
2022-08-23T06:35:27.788Z,5.22
2022-08-23T06:37:22.965Z,4.65
2022-08-23T06:41:28.709Z,4.50
2022-08-23T06:43:30.532Z,4.45
2022-08-23T06:45:35.277Z,4.32
2022-08-23T06:47:37.265Z,4.43
2022-08-23T06:49:39.649Z,4.32
2022-08-23T06:51:45.338Z,4.18
2022-08-23T06:53:47.831Z,4.60
2022-08-23T06:55:49.621Z,4.03
2022-08-23T06:57:51.413Z,4.15
2022-08-23T06:59:53.179Z,3.80
2022-08-23T07:02:04.588Z,4.45
2022-08-23T07:04:08.380Z,4.47
2022-08-23T07:06:10.188Z,3.90
2022-08-23T07:08:11.939Z,4.40
2022-08-23T07:10:15.197Z,3.80
2022-08-23T07:12:19.736Z,3.90
2022-08-23T07:14:22.645Z,3.80
2022-08-23T07:16:25.725Z,3.78
2022-08-23T07:18:27.603Z,3.10
2022-08-23T07:20:29.462Z,4.00
2022-08-23T07:22:31.229Z,3.33
2022-08-23T07:24:34.061Z,3.53
2022-08-23T07:26:36.499Z,3.50
2022-08-23T07:28:41.647Z,2.88
2022-08-23T07:30:45.468Z,3.58
2022-08-23T07:32:47.437Z,3.58
2022-08-23T07:34:49.201Z,3.22
2022-08-23T07:36:54.159Z,3.28
2022-08-23T07:38:57.568Z,3.25
2022-08-23T07:40:59.411Z,3.13
2022-08-23T07:43:01.352Z,3.63
2022-08-23T07:45:04.028Z,3.40
2022-08-23T07:47:06.000Z,4.03
2022-08-23T07:49:09.954Z,3.30
2022-08-23T07:51:14.561Z,2.90
2022-08-23T07:53:16.716Z,3.03
2022-08-23T07:55:34.296Z,3.22
2022-08-23T07:57:36.178Z,3.60
2022-08-23T07:59:38.024Z,2.97
2022-08-23T08:01:43.306Z,2.85
2022-08-23T08:03:47.868Z,3.60
2022-08-23T08:05:49.622Z,2.97
2022-08-23T08:07:51.361Z,3.22
2022-08-23T08:09:53.487Z,2.88
2022-08-23T08:11:56.121Z,2.65
2022-08-23T08:13:58.563Z,2.92
2022-08-23T08:16:00.390Z,2.55
2022-08-23T08:18:02.562Z,2.77
2022-08-23T08:20:08.127Z,2.75
2022-08-23T08:22:10.053Z,2.95
2022-08-23T08:24:14.368Z,2.80
2022-08-23T08:26:17.189Z,3.20
2022-08-23T08:30:20.744Z,3.17
2022-08-23T08:32:22.544Z,2.83
2022-08-23T08:34:24.689Z,2.85
2022-08-23T08:36:31.032Z,2.85
2022-08-23T08:38:36.813Z,2.20
2022-08-23T08:40:41.487Z,2.50
2022-08-23T08:43:07.342Z,2.50
2022-08-23T08:45:32.549Z,2.30
2022-08-23T08:47:52.380Z,1.80
2022-08-23T08:50:09.703Z,2.63
2022-08-23T08:52:18.731Z,2.10
2022-08-23T08:54:27.459Z,2.42
2022-08-23T08:56:34.922Z,2.20
2022-08-23T08:58:48.791Z,2.90
2022-08-23T09:00:55.194Z,2.60
2022-08-23T09:03:01.158Z,2.28
2022-08-23T09:05:11.317Z,2.20
2022-08-23T09:07:31.059Z,2.47
2022-08-23T09:10:05.173Z,2.22
2022-08-23T09:12:28.225Z,2.30
2022-08-23T09:14:47.432Z,2.35
2022-08-23T09:16:57.990Z,2.20
2022-08-23T09:19:02.343Z,2.35
2022-08-23T09:21:08.154Z,2.10
2022-08-23T09:23:22.877Z,2.25
2022-08-23T09:25:24.962Z,2.25
2022-08-23T09:27:26.913Z,2.20
2022-08-23T09:29:34.222Z,2.03
2022-08-23T09:31:39.502Z,2.00
2022-08-23T09:33:44.126Z,2.05
2022-08-23T09:36:22.588Z,2.00
2022-08-23T09:38:26.918Z,2.28
2022-08-23T09:40:34.330Z,1.90
2022-08-23T09:42:39.472Z,2.33
2022-08-23T09:44:43.517Z,2.30
2022-08-23T09:46:45.673Z,2.42
2022-08-23T09:48:48.036Z,1.95
2022-08-23T09:50:56.994Z,2.63
2022-08-23T09:53:04.414Z,2.17
2022-08-23T09:55:25.120Z,2.10
2022-08-23T09:57:29.999Z,1.92
2022-08-23T09:59:39.892Z,2.25
2022-08-23T10:01:48.403Z,2.00
2022-08-23T10:04:10.300Z,2.20
2022-08-23T10:06:17.257Z,2.40
2022-08-23T10:08:32.868Z,2.42
2022-08-23T10:10:51.165Z,2.35
2022-08-23T10:12:54.410Z,2.63
2022-08-23T10:14:57.858Z,2.42
2022-08-23T10:17:14.711Z,2.30
2022-08-23T10:19:29.236Z,2.33
2022-08-23T10:21:39.651Z,2.13
2022-08-23T10:23:51.949Z,2.08
2022-08-23T10:26:02.753Z,1.73
2022-08-23T10:28:29.276Z,2.30
2022-08-23T10:30:51.756Z,2.53
2022-08-23T10:33:08.387Z,2.00
2022-08-23T10:35:49.460Z,2.47
2022-08-23T10:37:51.176Z,2.67
2022-08-23T10:40:04.139Z,2.30
2022-08-23T10:42:18.905Z,2.38
2022-08-23T10:44:35.797Z,2.28
2022-08-23T10:46:46.978Z,2.60
2022-08-23T10:48:55.274Z,2.40
2022-08-23T10:51:07.787Z,2.10
2022-08-23T10:53:13.583Z,2.55
2022-08-23T10:55:35.397Z,2.75
2022-08-23T10:59:43.882Z,2.50
2022-08-23T11:01:51.598Z,2.42
2022-08-23T11:04:02.674Z,3.00
2022-08-23T11:06:35.585Z,2.78
2022-08-23T11:08:47.528Z,2.35
2022-08-23T11:10:55.936Z,2.47
2022-08-23T11:13:21.652Z,2.17
2022-08-23T11:15:44.455Z,2.30
2022-08-23T11:17:49.642Z,2.67
2022-08-23T11:20:03.930Z,2.65
2022-08-23T11:22:24.819Z,2.88
2022-08-23T11:24:32.019Z,2.58
2022-08-23T11:26:37.743Z,2.60
2022-08-23T11:28:43.099Z,2.10
2022-08-23T11:31:11.794Z,2.15
2022-08-23T11:33:19.402Z,1.83
2022-08-23T11:35:44.415Z,1.80
2022-08-23T11:38:03.987Z,1.73
2022-08-23T11:40:16.071Z,3.05
2022-08-23T11:42:19.986Z,1.80
2022-08-23T11:44:34.265Z,1.60
2022-08-23T11:46:51.207Z,2.00
2022-08-23T11:49:20.752Z,1.95
2022-08-23T11:51:35.160Z,1.50
2022-08-23T11:53:55.093Z,1.88
2022-08-23T11:56:12.652Z,1.70
2022-08-23T11:58:26.676Z,1.70
2022-08-23T12:01:06.096Z,1.70
2022-08-23T12:03:33.553Z,2.03
2022-08-23T12:05:38.730Z,1.70
2022-08-23T12:08:01.539Z,2.00
2022-08-23T12:10:04.964Z,1.63
2022-08-23T12:12:32.468Z,1.90
2022-08-23T12:14:50.334Z,1.80
2022-08-23T12:16:52.127Z,2.10
2022-08-23T12:19:02.980Z,1.75
2022-08-23T12:21:09.023Z,1.60
2022-08-23T12:23:17.326Z,2.00
2022-08-23T12:25:21.388Z,1.30
2022-08-23T12:27:49.043Z,1.90
2022-08-23T12:30:20.319Z,1.90
2022-08-23T12:32:40.908Z,1.40
2022-08-23T12:34:58.602Z,1.55
2022-08-23T12:37:30.105Z,2.00
2022-08-23T12:39:37.013Z,1.60
2022-08-23T12:42:02.809Z,1.33
2022-08-23T12:44:08.674Z,1.38
2022-08-23T12:46:10.552Z,1.40
2022-08-23T12:48:14.480Z,1.92
2022-08-23T12:50:19.965Z,1.30
2022-08-23T12:52:27.343Z,1.40
2022-08-23T12:54:34.977Z,1.45
2022-08-23T12:56:37.038Z,1.50
2022-08-23T12:58:45.468Z,1.33
2022-08-23T13:00:56.470Z,1.42
2022-08-23T13:03:10.323Z,1.35
2022-08-23T13:05:27.085Z,1.40
2022-08-23T13:07:29.983Z,1.50
2022-08-23T13:09:40.513Z,1.20
2022-08-23T13:11:43.866Z,1.40
2022-08-23T13:13:45.718Z,1.30
2022-08-23T13:15:47.597Z,1.25
2022-08-23T13:18:00.936Z,1.48
2022-08-23T13:20:03.470Z,1.67
2022-08-23T13:22:19.375Z,1.33
2022-08-23T13:24:40.608Z,1.50
2022-08-23T13:26:43.981Z,1.48
2022-08-23T13:29:15.866Z,1.20
2022-08-23T13:31:17.794Z,1.40
2022-08-23T13:33:21.561Z,1.10
2022-08-23T13:35:29.927Z,1.38
2022-08-23T13:37:33.240Z,1.27
2022-08-23T13:39:35.127Z,1.50
2022-08-23T13:41:39.019Z,1.35
2022-08-23T13:43:43.833Z,1.50
2022-08-23T13:45:52.122Z,1.20
2022-08-23T13:48:02.472Z,1.42
2022-08-23T13:50:08.518Z,1.20
2022-08-23T13:54:35.774Z,1.20
2022-08-23T13:56:53.319Z,1.23
2022-08-23T13:59:01.165Z,1.20
2022-08-23T14:01:04.975Z,1.20
2022-08-23T14:03:07.882Z,1.05
2022-08-23T14:05:10.207Z,1.30
2022-08-23T14:07:12.659Z,1.30
2022-08-23T14:09:15.510Z,1.30
2022-08-23T14:11:17.636Z,1.10
2022-08-23T14:13:24.374Z,1.00
2022-08-23T14:17:51.635Z,1.20
2022-08-23T14:22:17.678Z,1.13
2022-08-23T14:24:20.074Z,1.20
2022-08-23T14:28:29.558Z,1.40
2022-08-23T14:30:35.940Z,1.10
2022-08-23T14:32:40.704Z,1.30
2022-08-23T14:34:42.489Z,1.45
2022-08-23T14:37:21.663Z,1.30
2022-08-23T14:39:06.113Z,1.13
2022-08-23T14:41:10.860Z,1.10
2022-08-23T14:43:12.645Z,1.30
2022-08-23T14:45:16.264Z,1.30
2022-08-23T14:47:18.538Z,1.35
2022-08-23T14:49:21.463Z,1.55
2022-08-23T14:51:36.099Z,1.15
2022-08-23T14:53:45.030Z,1.20
2022-08-23T14:56:01.118Z,1.70
2022-08-23T14:58:11.389Z,1.30
2022-08-23T15:00:14.038Z,1.45
2022-08-23T15:02:21.212Z,1.45
2022-08-23T15:04:24.419Z,1.20
2022-08-23T15:06:26.851Z,1.23
2022-08-23T15:08:28.975Z,1.20
2022-08-23T15:13:12.811Z,1.13
2022-08-23T15:15:21.738Z,1.33
2022-08-23T15:17:30.341Z,1.45
2022-08-23T15:19:33.216Z,1.02
2022-08-23T15:21:35.067Z,1.20
2022-08-23T15:23:36.873Z,1.10
2022-08-23T15:25:41.375Z,1.02
2022-08-23T15:27:44.932Z,1.10
2022-08-23T15:29:46.702Z,1.20
2022-08-23T15:31:48.480Z,1.10
2022-08-23T15:33:51.721Z,1.00
2022-08-23T15:35:54.653Z,1.10
2022-08-23T15:37:57.274Z,1.27
2022-08-23T15:39:59.342Z,1.00
2022-08-23T15:42:01.174Z,1.00
2022-08-23T15:44:03.410Z,1.00
2022-08-23T15:46:07.639Z,0.90
2022-08-23T15:48:24.002Z,1.20
2022-08-23T15:50:30.979Z,1.00
2022-08-23T15:52:32.816Z,1.08
2022-08-23T15:54:34.732Z,1.10
2022-08-23T15:56:46.984Z,0.80
2022-08-23T15:58:49.070Z,1.30
2022-08-23T16:00:52.218Z,1.25
2022-08-23T16:03:20.438Z,1.00
2022-08-23T16:05:16.493Z,1.30
2022-08-23T16:07:18.794Z,1.20
2022-08-23T16:09:23.981Z,1.00
2022-08-23T16:11:26.129Z,1.10
2022-08-23T16:13:28.305Z,1.02
2022-08-23T16:15:30.112Z,1.00
2022-08-23T16:17:32.031Z,1.00
2022-08-23T16:19:33.992Z,1.00
2022-08-23T16:21:36.576Z,0.90
2022-08-23T16:25:42.228Z,1.10
2022-08-23T16:27:44.048Z,0.85
2022-08-23T16:29:45.892Z,1.05
2022-08-23T16:31:48.132Z,1.20
2022-08-23T16:33:49.938Z,1.00
2022-08-23T16:35:51.752Z,1.17
2022-08-23T16:37:54.611Z,1.05
2022-08-23T16:39:56.461Z,1.05
2022-08-23T16:42:01.300Z,0.98
2022-08-23T16:44:03.528Z,1.20
2022-08-23T16:46:05.740Z,0.90
2022-08-23T16:48:10.644Z,1.10
2022-08-23T16:50:15.005Z,1.25
2022-08-23T16:52:17.386Z,1.13
2022-08-23T16:54:22.415Z,0.82
2022-08-23T16:56:24.202Z,1.10
2022-08-23T16:58:26.235Z,1.00
2022-08-23T17:00:28.055Z,1.00
2022-08-23T17:02:33.223Z,1.30
2022-08-23T17:04:35.022Z,1.20
2022-08-23T17:06:36.891Z,1.20
2022-08-23T17:08:38.799Z,1.38
2022-08-23T17:10:41.025Z,0.95
2022-08-23T17:12:47.172Z,1.02
2022-08-23T17:14:51.374Z,0.90
2022-08-23T17:16:53.583Z,0.80
2022-08-23T17:18:57.342Z,1.20
2022-08-23T17:20:59.196Z,1.30
2022-08-23T17:23:01.192Z,1.00
2022-08-23T17:25:09.673Z,1.30
2022-08-23T17:27:19.085Z,1.10
2022-08-23T17:29:21.975Z,1.40
2022-08-23T17:33:26.066Z,1.48
2022-08-23T17:35:33.729Z,1.70
2022-08-23T17:37:36.974Z,1.48
2022-08-23T17:39:39.557Z,1.80
2022-08-23T17:41:45.370Z,1.55
2022-08-23T17:43:47.888Z,1.75
2022-08-23T17:45:51.586Z,1.90
2022-08-23T17:47:54.044Z,1.50
2022-08-23T17:49:56.009Z,1.70
2022-08-23T17:51:57.845Z,1.38
2022-08-23T17:53:59.797Z,1.63
2022-08-23T17:56:02.052Z,1.60
2022-08-23T17:58:08.388Z,1.40
2022-08-23T18:00:13.389Z,1.60
2022-08-23T18:02:15.632Z,1.60
2022-08-23T18:04:17.955Z,1.65
2022-08-23T18:06:20.249Z,1.60
2022-08-23T18:08:22.048Z,1.65
2022-08-23T18:10:24.510Z,1.73
2022-08-23T18:12:26.293Z,1.48
2022-08-23T18:14:28.241Z,1.50
2022-08-23T18:16:35.010Z,1.90
2022-08-23T18:18:37.942Z,1.52
2022-08-23T18:20:39.711Z,2.00
2022-08-23T18:22:41.555Z,1.45
2022-08-23T18:24:43.523Z,1.60
2022-08-23T18:27:03.691Z,1.40
2022-08-23T18:29:06.987Z,1.67
2022-08-23T18:31:08.821Z,1.52
2022-08-23T18:33:12.655Z,1.88
2022-08-23T18:35:14.995Z,1.95
2022-08-23T18:37:17.238Z,2.08
2022-08-23T18:39:31.899Z,1.80
2022-08-23T18:41:34.434Z,2.53
2022-08-23T18:43:37.508Z,2.35
2022-08-23T18:45:39.719Z,2.15
2022-08-23T18:47:41.553Z,2.20
2022-08-23T18:49:43.387Z,2.38
2022-08-23T18:51:45.181Z,2.40
2022-08-23T18:53:47.255Z,2.67
2022-08-23T18:55:50.099Z,2.45
2022-08-23T18:57:51.874Z,2.30
2022-08-23T18:59:53.673Z,2.28
2022-08-23T19:01:56.049Z,1.92
2022-08-23T19:04:03.251Z,2.60
2022-08-23T19:06:05.237Z,2.05
2022-08-23T19:08:07.235Z,2.80
2022-08-23T19:10:09.566Z,3.05
2022-08-23T19:12:11.566Z,3.03
2022-08-23T19:14:13.892Z,2.85
2022-08-23T19:16:17.543Z,2.97
2022-08-23T19:18:19.424Z,2.92
2022-08-23T19:20:21.361Z,3.17
2022-08-23T19:22:23.606Z,2.85
2022-08-23T19:24:25.845Z,2.92
2022-08-23T19:26:31.820Z,3.13
2022-08-23T19:28:33.701Z,2.75
2022-08-23T19:30:35.646Z,2.63
2022-08-23T19:32:39.530Z,2.67
2022-08-23T19:34:42.243Z,2.60
2022-08-23T19:36:48.267Z,2.70
2022-08-23T19:38:55.848Z,2.80
2022-08-23T19:40:58.416Z,2.63
2022-08-23T19:43:01.415Z,2.83
2022-08-23T19:45:06.294Z,2.78
2022-08-23T19:47:08.255Z,2.97
2022-08-23T19:51:24.642Z,3.00
2022-08-23T19:53:26.588Z,3.50
2022-08-23T19:55:28.655Z,2.77
2022-08-23T19:57:31.340Z,3.28
2022-08-23T19:59:39.174Z,2.53
2022-08-23T20:01:41.074Z,2.72
2022-08-23T20:03:42.905Z,2.93
2022-08-23T20:05:44.713Z,2.45
2022-08-23T20:07:47.255Z,3.13
2022-08-23T20:09:49.101Z,3.92
2022-08-23T20:11:54.992Z,3.47
2022-08-23T20:13:56.907Z,3.40
2022-08-23T20:15:58.703Z,2.83
2022-08-23T20:18:00.526Z,3.15
2022-08-23T20:20:02.906Z,3.60
2022-08-23T20:22:23.351Z,3.30
2022-08-23T20:24:37.498Z,3.58
2022-08-23T20:26:49.184Z,3.33
2022-08-23T20:28:59.445Z,3.58
2022-08-23T20:31:30.306Z,3.33
2022-08-23T20:33:32.633Z,3.17
2022-08-23T20:35:34.463Z,3.30
2022-08-23T20:37:36.317Z,3.85
2022-08-23T20:39:38.316Z,3.63
2022-08-23T20:41:41.033Z,3.10
2022-08-23T20:45:44.590Z,3.40
2022-08-23T20:47:49.883Z,3.33
2022-08-23T20:49:51.804Z,3.20
2022-08-23T20:51:53.616Z,3.80
2022-08-23T20:53:56.527Z,3.30
2022-08-23T20:55:58.839Z,3.38
2022-08-23T20:58:00.799Z,3.28
2022-08-23T21:00:02.981Z,3.35
2022-08-23T21:02:05.095Z,3.45
2022-08-23T21:04:07.177Z,3.85
2022-08-23T21:06:21.792Z,2.90
2022-08-23T21:08:23.645Z,3.33
2022-08-23T21:10:27.303Z,3.70
2022-08-23T21:12:29.080Z,3.42
2022-08-23T21:14:30.855Z,3.13
2022-08-23T21:16:32.871Z,3.40
2022-08-23T21:18:34.879Z,3.50
2022-08-23T21:20:37.108Z,3.42
2022-08-23T21:22:38.913Z,3.75
2022-08-23T21:24:40.829Z,3.60
2022-08-23T21:26:43.068Z,3.43
2022-08-23T21:28:45.050Z,3.08
2022-08-23T21:30:47.139Z,3.40
2022-08-23T21:32:49.163Z,4.00
2022-08-23T21:34:51.027Z,3.70
2022-08-23T21:36:53.385Z,3.60
2022-08-23T21:38:55.477Z,3.13
2022-08-23T21:40:59.110Z,3.72
2022-08-23T21:43:01.186Z,3.45
2022-08-23T21:45:04.640Z,3.38
2022-08-23T21:47:06.918Z,3.97
2022-08-23T21:49:09.400Z,3.28
2022-08-23T21:51:14.355Z,3.72
2022-08-23T21:53:16.229Z,3.73
2022-08-23T21:55:18.149Z,3.67
2022-08-23T21:57:19.935Z,4.03
2022-08-23T21:59:22.157Z,3.80
2022-08-23T22:01:24.082Z,3.75
2022-08-23T22:03:25.982Z,3.95
2022-08-23T22:05:27.937Z,3.80
2022-08-23T22:07:29.721Z,3.40
2022-08-23T22:09:33.335Z,3.88
2022-08-23T22:11:40.723Z,4.45
2022-08-23T22:13:43.062Z,3.60
2022-08-23T22:15:44.914Z,3.47
2022-08-23T22:17:46.732Z,3.80
2022-08-23T22:19:48.548Z,4.10
2022-08-23T22:21:52.298Z,3.35
2022-08-23T22:23:54.088Z,4.03
2022-08-23T22:26:05.051Z,3.60
2022-08-23T22:28:06.842Z,3.83
2022-08-23T22:30:09.501Z,3.90
2022-08-23T22:32:11.410Z,3.90
2022-08-23T22:34:13.283Z,3.73
2022-08-23T22:36:18.920Z,3.78
2022-08-23T22:38:20.773Z,3.55
2022-08-23T22:40:22.786Z,3.83
2022-08-23T22:42:24.623Z,3.88
2022-08-23T22:44:26.430Z,3.75
2022-08-23T22:46:31.019Z,3.45
2022-08-23T22:48:37.368Z,3.55
2022-08-23T22:50:39.150Z,3.70
2022-08-23T22:52:42.164Z,3.92
2022-08-23T22:54:43.963Z,3.70
2022-08-23T22:56:50.984Z,3.67
2022-08-23T22:58:53.468Z,4.20
2022-08-23T23:00:55.725Z,3.95
2022-08-23T23:02:58.478Z,3.70
2022-08-23T23:05:00.313Z,4.10
2022-08-23T23:07:02.657Z,3.63
2022-08-23T23:09:07.397Z,4.05
2022-08-23T23:11:12.161Z,4.28
2022-08-23T23:13:13.981Z,4.18
2022-08-23T23:15:15.892Z,4.40
2022-08-23T23:17:17.680Z,4.50
2022-08-23T23:19:39.081Z,4.60
2022-08-23T23:21:46.776Z,3.90
2022-08-23T23:23:48.566Z,4.85
2022-08-23T23:25:51.266Z,4.43
2022-08-23T23:27:53.060Z,3.95
2022-08-23T23:29:54.957Z,4.15
2022-08-23T23:31:58.829Z,4.10
2022-08-23T23:34:00.805Z,4.50
2022-08-23T23:36:02.741Z,4.38
2022-08-23T23:38:06.350Z,4.43
2022-08-23T23:40:08.871Z,4.03
2022-08-23T23:42:10.708Z,4.68
2022-08-23T23:44:12.525Z,4.63
2022-08-23T23:46:17.777Z,4.30
2022-08-23T23:48:19.900Z,4.22
2022-08-23T23:50:22.320Z,4.55
2022-08-23T23:52:24.658Z,4.78
2022-08-23T23:54:26.493Z,4.38
2022-08-23T23:56:29.808Z,4.73
2022-08-23T23:58:32.147Z,4.53
